Flight Track Log - Related Links

Times and Time Zones

All times are in EST time to prevent confusion due to time zone crossing. See the FLG3757 flight status page for this flight to view local times or setup timezone preferences in your user account.

Time Position Orientation Groundspeed Altitude Reporting Facility
EST Latitude Longitude Course Direction KTS MPH feet Rate Location/Type
Fri 06:46:41 AM 42.1758 -75.9700 289° West 145 167 3,400  Level New York Center
Fri 06:47:41 AM 42.1294 -75.9886 197° South 156 180 5,400 2,150 Climbing New York Center
Fri 06:48:41 AM 42.1506 -76.0714 289° West 154 177 7,700 2,550 Climbing New York Center
Fri 06:49:41 AM 42.1781 -76.1575 293° West 199 229 10,500 1,807 Climbing New York Center
Fri 06:51:37 AM 42.2392 -76.3475 294° West 311 358 13,000 1,492 Climbing Cleveland Center
Fri 06:52:00 AM 42.2296 -76.6983 289° West  Level Estimated
Fri 06:52:38 AM 42.2728 -76.4567 293° West 326 375 14,900  Level Cleveland Center
Fri 06:53:39 AM 42.3083 -76.5700 293° West 327 376 16,900 1,672 Climbing Cleveland Center
Fri 06:54:40 AM 42.3442 -76.6836 293° West 328 377 18,300 1,180 Climbing Cleveland Center
Fri 06:55:41 AM 42.3806 -76.8025 293° West 339 390 19,300 984 Climbing Cleveland Center
Fri 06:56:42 AM 42.4192 -76.9289 293° West 358 412 20,300 836 Climbing Cleveland Center
Fri 06:57:43 AM 42.4594 -77.0597 293° West 372 428 21,000 1,721 Climbing Cleveland Center
Fri 06:58:44 AM 42.5061 -77.2131 292° West 370 426 23,800 2,016 Climbing Cleveland Center
Fri 06:59:45 AM 42.5417 -77.3319 292° West 347 399 25,100 984 Climbing Cleveland Center
Fri 07:00:46 AM 42.5781 -77.4519 292° West 345 397 25,800 443 Climbing Cleveland Center
Fri 07:01:47 AM 42.6181 -77.5844 292° West 356 410 26,000 98 Climbing Cleveland Center
Fri 07:02:48 AM 42.6550 -77.7097 292° West 358 412 26,000  Level Cleveland Center
Fri 07:03:49 AM 42.6947 -77.8419 292° West 363 418 26,000  Level Cleveland Center
Fri 07:04:50 AM 42.7344 -77.9781 292° West 384 442 26,000  Level Cleveland Center
Fri 07:05:51 AM 42.7739 -78.1136 292° West 386 444 26,000  Level Cleveland Center
Fri 07:06:53 AM 42.8139 -78.2511 292° West 391 450 26,000  Level Cleveland Center
Fri 07:07:54 AM 42.8533 -78.3878 292° West 387 445 26,000  Level Cleveland Center
Fri 07:08:55 AM 42.8925 -78.5217 292° West 381 438 26,000  Level Cleveland Center
Fri 07:09:56 AM 42.9242 -78.6608 287° West 386 444 26,000  Level Cleveland Center
Fri 07:10:57 AM 42.9064 -78.8033 260° West 382 440 26,000  Level Cleveland Center
Fri 07:11:58 AM 42.8847 -78.9464 258° West 385 443 26,000  Level Cleveland Center
Fri 07:13:00 AM 42.8639 -79.0903 259° West 388 447 26,000  Level Cleveland Center
Fri 07:14:01 AM 42.8392 -79.2619 259° West 387 445 26,000  Level Cleveland Center
Fri 07:15:02 AM 42.8169 -79.4058 258° West 389 448 26,000  Level Cleveland Center
Fri 07:16:03 AM 42.7958 -79.5486 259° West 386 444 26,000  Level Cleveland Center
Fri 07:17:04 AM 42.7736 -79.6917 258° West 388 447 26,000  Level Cleveland Center
Fri 07:18:06 AM 42.7522 -79.8339 258° West 386 444 26,000  Level Cleveland Center
Fri 07:19:07 AM 42.7450 -79.9883 266° West 385 443 26,000  Level Cleveland Center
Fri 07:20:08 AM 42.7389 -80.1367 267° West 388 447 26,000  Level Cleveland Center
Fri 07:21:09 AM 42.7322 -80.2847 267° West 390 449 26,000  Level Cleveland Center
Fri 07:22:11 AM 42.7256 -80.4317 267° West 387 445 26,000  Level Cleveland Center
Fri 07:23:12 AM 42.7194 -80.5786 267° West 387 445 26,000 -98 Level Cleveland Center
Fri 07:24:13 AM 42.7133 -80.7253 267° West 387 445 25,800 -590 Descending Cleveland Center
Fri 07:25:14 AM 42.7067 -80.8692 266° West 379 436 24,800 -976 Descending Cleveland Center
Fri 07:26:16 AM 42.6933 -81.0061 262° West 365 420 23,800 -1,024 Descending Cleveland Center
Fri 07:27:17 AM 42.6769 -81.1386 260° West 357 411 22,700 -885 Descending Cleveland Center
Fri 07:28:18 AM 42.6628 -81.2733 262° West 357 411 22,000 -344 Descending Cleveland Center
Fri 07:29:19 AM 42.6469 -81.4047 261° West 352 405 22,000  Level Cleveland Center
Fri 07:30:21 AM 42.6319 -81.5300 261° West 335 386 22,000 -293 Level Cleveland Center
Fri 07:31:22 AM 42.6189 -81.6436 261° West 307 353 21,400 -984 Descending Cleveland Center
Fri 07:32:23 AM 42.6025 -81.7794 261° West 311 358 20,000 -1,317 Descending Cleveland Center
Fri 07:33:25 AM 42.5892 -81.8936 261° West 306 352 18,700 -1,024 Descending Cleveland Center
Fri 07:34:26 AM 42.5750 -82.0025 260° West 293 337 17,900 -1,024 Descending Cleveland Center
Fri 07:35:28 AM 42.5619 -82.1106 261° West 289 333 16,600 -1,268 Descending Cleveland Center
Fri 07:36:29 AM 42.5486 -82.2169 260° West 286 329 15,300 -1,352 Descending Cleveland Center
Fri 07:36:39 AM 42.5456 -82.2428 261° West 284 327 15,000 -1,200 Descending Cleveland Center
Fri 07:37:04 AM 42.5406 -82.2847 261° West 281 323 14,600 -1,059 Descending Cleveland Center
Fri 07:37:30 AM 42.5364 -82.3208 261° West 278 320 14,100 -1,200 Descending Cleveland Center
Fri 07:38:04 AM 42.5272 -82.3878 259° West 274 315 13,400 -1,065 Descending Cleveland Center
Fri 07:38:32 AM 42.5228 -82.4222 260° West 273 314 13,000 -1,082 Descending Cleveland Center
Fri 07:39:05 AM 42.5161 -82.4881 262° West 268 308 12,300 -984 Descending Cleveland Center
Fri 07:39:33 AM 42.5100 -82.5228 257° West 269 310 12,000 -436 Descending Cleveland Center
Fri 07:40:00 AM 42.4975 -82.5764 252° West 264 304 11,900 -581 Descending Cleveland Center
Fri 07:40:35 AM 42.4828 -82.6150 243° Southwest 263 303 11,400 -1,075 Descending Cleveland Center
Fri 07:41:07 AM 42.4611 -82.6733 243° Southwest 251 289 10,700 -984 Descending Cleveland Center
Fri 07:41:36 AM 42.4481 -82.6978 234° Southwest 257 296 10,400 -984 Descending Cleveland Center
Fri 07:42:08 AM 42.4228 -82.7419 232° Southwest 218 251 9,700 -968 Descending Cleveland Center
Fri 07:42:38 AM 42.4100 -82.7633 231° Southwest 242 278 9,400 -985 Descending Cleveland Center
Fri 07:43:15 AM 42.3867 -82.8078 235° Southwest 198 228 8,600 -1,180 Descending Cleveland Center
Fri 07:43:39 AM 42.3742 -82.8342 237° Southwest 215 247 8,200 -1,000 Descending Cleveland Center
Fri 07:44:15 AM 42.3550 -82.8683 233° Southwest 200 230 7,600 -968 Descending Cleveland Center
Fri 07:44:41 AM 42.3408 -82.8942 233° Southwest 205 236 7,200 -590 Descending Cleveland Center
Fri 07:45:16 AM 42.3289 -82.9356 249° West 198 228 7,000 -197 Descending Cleveland Center
Fri 07:45:42 AM 42.3392 -82.9622 298° West 211 243 7,000  Level Cleveland Center
Fri 07:46:17 AM 42.3594 -83.0047 303° West 218 251 7,000  Level Cleveland Center
Fri 07:46:44 AM 42.3719 -83.0297 304° West 213 245 7,000  Level Cleveland Center
Fri 07:47:12 AM 42.3978 -83.0522 327° Northwest 240 276 7,000 -197 Level Cleveland Center
Fri 07:47:45 AM 42.4294 -83.0333 24° Northeast 250 288 6,800 -689 Descending Cleveland Center
Fri 07:48:13 AM 42.4633 -83.0442 347° North 238 274 6,300 -774 Descending Cleveland Center
Fri 07:48:47 AM 42.4789 -83.0692 310° West 226 260 6,000 -295 Descending Cleveland Center
Fri 07:49:14 AM 42.4922 -83.1047 297° West 179 206 6,000  Level Cleveland Center
Fri 07:49:48 AM 42.4853 -83.1306 250° West 194 223 6,000  Level Cleveland Center
Fri 07:50:14 AM 42.4656 -83.1519 219° Southwest 152 175 6,000  Level Cleveland Center
Fri 07:50:50 AM 42.4500 -83.1644 211° Southwest 170 196 6,000 -393 Level Cleveland Center
Fri 07:51:15 AM 42.4278 -83.1808 209° Southwest 157 181 5,600 -787 Descending Cleveland Center
Fri 07:51:51 AM 42.4094 -83.1917 204° Southwest 160 184 5,200 -885 Descending Cleveland Center
Fri 07:52:16 AM 42.3900 -83.2094 214° Southwest 155 178 4,700 -871 Descending Cleveland Center
Fri 07:52:53 AM 42.3728 -83.2200 204° Southwest 156 180 4,300 -885 Descending Cleveland Center
Fri 07:53:17 AM 42.3522 -83.2381 213° Southwest 153 176 3,800 -871 Descending Cleveland Center
Fri 07:53:55 AM 42.3342 -83.2503 207° Southwest 156 180 3,400 -885 Descending Cleveland Center
Fri 07:54:18 AM 42.3125 -83.2636 204° Southwest 154 177 2,900 -940 Descending Cleveland Center
Fri 07:55:18 AM 42.2769 -83.2925 211° Southwest 129 148 2,100 -793 Descending Cleveland Center
Fri 07:56:19 AM 42.2458 -83.3136 207° Southwest 124 143 1,300 -787 Descending Cleveland Center

Login

Don't have an account? Register now (free) for customized features, flight alerts, and more!